sensor_id;sensor_type;location;lat;lon;timestamp;pressure;altitude;pressure_sealevel;temperature;humidity
55066;BME280;40964;42.114;24.220;2022-11-11T00:00:11;98883.56;;;9.28;83.68
55066;BME280;40964;42.114;24.220;2022-11-11T00:02:36;98899.22;;;9.36;83.72
55066;BME280;40964;42.114;24.220;2022-11-11T00:05:02;98893.78;;;9.37;83.24
55066;BME280;40964;42.114;24.220;2022-11-11T00:07:28;98890.78;;;9.41;82.94
55066;BME280;40964;42.114;24.220;2022-11-11T00:09:53;98897.22;;;9.38;83.37
55066;BME280;40964;42.114;24.220;2022-11-11T00:12:18;98889.78;;;9.42;83.19
55066;BME280;40964;42.114;24.220;2022-11-11T00:14:44;98886.00;;;9.44;83.10
55066;BME280;40964;42.114;24.220;2022-11-11T00:17:13;98897.31;;;9.45;82.85
55066;BME280;40964;42.114;24.220;2022-11-11T00:19:57;98898.13;;;9.30;83.14
55066;BME280;40964;42.114;24.220;2022-11-11T00:22:41;98901.13;;;9.27;83.22
55066;BME280;40964;42.114;24.220;2022-11-11T00:25:25;98903.94;;;9.26;83.04
55066;BME280;40964;42.114;24.220;2022-11-11T00:27:50;98900.00;;;9.22;83.44
55066;BME280;40964;42.114;24.220;2022-11-11T00:30:16;98896.94;;;9.18;83.73
55066;BME280;40964;42.114;24.220;2022-11-11T00:32:41;98895.13;;;9.19;83.42
55066;BME280;40964;42.114;24.220;2022-11-11T00:35:07;98902.19;;;9.18;83.81
55066;BME280;40964;42.114;24.220;2022-11-11T00:37:51;98891.31;;;9.06;83.81
55066;BME280;40964;42.114;24.220;2022-11-11T00:40:17;98893.22;;;9.13;84.00
55066;BME280;40964;42.114;24.220;2022-11-11T00:42:42;98890.97;;;9.09;84.45
55066;BME280;40964;42.114;24.220;2022-11-11T00:45:09;98881.09;;;9.12;84.31
55066;BME280;40964;42.114;24.220;2022-11-11T00:47:35;98888.06;;;9.19;84.36
55066;BME280;40964;42.114;24.220;2022-11-11T00:50:26;98881.72;;;9.14;84.61
55066;BME280;40964;42.114;24.220;2022-11-11T00:53:16;98888.16;;;9.11;84.84
55066;BME280;40964;42.114;24.220;2022-11-11T00:55:42;98885.44;;;9.04;85.00
55066;BME280;40964;42.114;24.220;2022-11-11T00:58:08;98884.63;;;9.04;85.01
55066;BME280;40964;42.114;24.220;2022-11-11T01:00:33;98886.13;;;8.98;84.05
55066;BME280;40964;42.114;24.220;2022-11-11T01:02:59;98893.44;;;8.73;85.28
55066;BME280;40964;42.114;24.220;2022-11-11T01:05:25;98886.44;;;8.66;85.72
55066;BME280;40964;42.114;24.220;2022-11-11T01:07:50;98888.78;;;8.61;87.22
55066;BME280;40964;42.114;24.220;2022-11-11T01:10:17;98888.91;;;8.67;86.68
55066;BME280;40964;42.114;24.220;2022-11-11T01:13:27;98876.22;;;8.71;86.89
55066;BME280;40964;42.114;24.220;2022-11-11T01:15:57;98880.50;;;8.72;86.59
55066;BME280;40964;42.114;24.220;2022-11-11T01:18:24;98881.84;;;8.68;86.55
55066;BME280;40964;42.114;24.220;2022-11-11T01:21:02;98877.88;;;8.72;86.53
55066;BME280;40964;42.114;24.220;2022-11-11T01:23:28;98873.91;;;8.76;86.34
55066;BME280;40964;42.114;24.220;2022-11-11T01:25:54;98871.28;;;8.76;85.66
55066;BME280;40964;42.114;24.220;2022-11-11T01:28:25;98871.56;;;8.81;85.89
55066;BME280;40964;42.114;24.220;2022-11-11T01:30:50;98873.47;;;8.87;85.60
55066;BME280;40964;42.114;24.220;2022-11-11T01:33:15;98868.69;;;8.91;85.18
55066;BME280;40964;42.114;24.220;2022-11-11T01:35:41;98869.84;;;8.88;85.38
55066;BME280;40964;42.114;24.220;2022-11-11T01:38:07;98867.50;;;8.93;85.43
55066;BME280;40964;42.114;24.220;2022-11-11T01:40:44;98862.44;;;8.92;85.59
55066;BME280;40964;42.114;24.220;2022-11-11T01:46:09;98867.78;;;8.98;84.96
55066;BME280;40964;42.114;24.220;2022-11-11T01:51:47;98860.19;;;9.03;84.39
55066;BME280;40964;42.114;24.220;2022-11-11T01:54:15;98867.63;;;9.00;84.31
55066;BME280;40964;42.114;24.220;2022-11-11T01:56:45;98869.44;;;8.99;84.62
55066;BME280;40964;42.114;24.220;2022-11-11T01:59:14;98857.19;;;8.92;84.83
55066;BME280;40964;42.114;24.220;2022-11-11T02:01:42;98850.66;;;8.88;85.41
55066;BME280;40964;42.114;24.220;2022-11-11T02:04:10;98860.56;;;9.00;85.49
55066;BME280;40964;42.114;24.220;2022-11-11T02:06:56;98869.44;;;8.99;85.30
55066;BME280;40964;42.114;24.220;2022-11-11T02:09:23;98873.31;;;9.03;85.22
55066;BME280;40964;42.114;24.220;2022-11-11T02:11:50;98868.75;;;8.97;85.35
55066;BME280;40964;42.114;24.220;2022-11-11T02:14:46;98870.06;;;9.01;85.51
55066;BME280;40964;42.114;24.220;2022-11-11T02:17:14;98868.50;;;9.07;84.79
55066;BME280;40964;42.114;24.220;2022-11-11T02:19:49;98875.75;;;9.05;84.70
55066;BME280;40964;42.114;24.220;2022-11-11T02:22:22;98873.31;;;9.03;85.77
55066;BME280;40964;42.114;24.220;2022-11-11T02:24:52;98883.44;;;8.92;86.46
55066;BME280;40964;42.114;24.220;2022-11-11T02:27:19;98884.84;;;8.79;86.31
55066;BME280;40964;42.114;24.220;2022-11-11T02:29:48;98887.31;;;8.81;86.17
55066;BME280;40964;42.114;24.220;2022-11-11T02:32:15;98896.63;;;8.84;85.70
55066;BME280;40964;42.114;24.220;2022-11-11T02:34:40;98888.13;;;8.81;86.37
55066;BME280;40964;42.114;24.220;2022-11-11T02:37:07;98883.44;;;8.92;85.76
55066;BME280;40964;42.114;24.220;2022-11-11T02:39:34;98888.56;;;8.85;86.47
55066;BME280;40964;42.114;24.220;2022-11-11T02:42:03;98891.38;;;8.84;86.63
55066;BME280;40964;42.114;24.220;2022-11-11T02:44:35;98887.25;;;8.66;87.39
55066;BME280;40964;42.114;24.220;2022-11-11T02:47:02;98883.66;;;8.67;87.42
55066;BME280;40964;42.114;24.220;2022-11-11T02:49:27;98893.97;;;8.69;86.89
55066;BME280;40964;42.114;24.220;2022-11-11T02:51:53;98878.69;;;8.72;87.66
55066;BME280;40964;42.114;24.220;2022-11-11T02:54:18;98885.38;;;8.75;87.21
55066;BME280;40964;42.114;24.220;2022-11-11T02:56:43;98868.72;;;8.68;88.79
55066;BME280;40964;42.114;24.220;2022-11-11T02:59:27;98887.56;;;8.86;89.30
55066;BME280;40964;42.114;24.220;2022-11-11T03:01:53;98886.94;;;8.84;89.54
55066;BME280;40964;42.114;24.220;2022-11-11T03:04:18;98887.88;;;8.91;89.87
55066;BME280;40964;42.114;24.220;2022-11-11T03:06:44;98881.63;;;8.92;89.75
55066;BME280;40964;42.114;24.220;2022-11-11T03:09:09;98866.88;;;8.91;89.77
55066;BME280;40964;42.114;24.220;2022-11-11T03:11:35;98881.81;;;9.05;89.72
55066;BME280;40964;42.114;24.220;2022-11-11T03:14:03;98878.28;;;9.13;89.58
55066;BME280;40964;42.114;24.220;2022-11-11T03:16:28;98869.50;;;9.21;89.61
55066;BME280;40964;42.114;24.220;2022-11-11T03:19:12;98873.50;;;9.31;88.89
55066;BME280;40964;42.114;24.220;2022-11-11T03:21:38;98866.53;;;9.38;89.08
55066;BME280;40964;42.114;24.220;2022-11-11T03:24:04;98867.34;;;9.39;88.97
55066;BME280;40964;42.114;24.220;2022-11-11T03:26:29;98872.22;;;9.42;89.24
55066;BME280;40964;42.114;24.220;2022-11-11T03:28:55;98873.69;;;9.45;88.88
55066;BME280;40964;42.114;24.220;2022-11-11T03:31:21;98874.59;;;9.37;89.73
55066;BME280;40964;42.114;24.220;2022-11-11T03:33:46;98865.91;;;9.36;89.18
55066;BME280;40964;42.114;24.220;2022-11-11T03:36:12;98867.88;;;9.34;88.77
55066;BME280;40964;42.114;24.220;2022-11-11T03:38:38;98878.13;;;9.29;88.99
55066;BME280;40964;42.114;24.220;2022-11-11T03:41:03;98876.31;;;9.30;89.15
55066;BME280;40964;42.114;24.220;2022-11-11T03:43:31;98882.66;;;9.35;89.41
55066;BME280;40964;42.114;24.220;2022-11-11T03:45:59;98871.97;;;9.37;89.33
55066;BME280;40964;42.114;24.220;2022-11-11T03:48:26;98858.22;;;9.35;89.07
55066;BME280;40964;42.114;24.220;2022-11-11T03:50:52;98869.69;;;9.49;88.67
55066;BME280;40964;42.114;24.220;2022-11-11T03:53:18;98865.25;;;9.49;88.50
55066;BME280;40964;42.114;24.220;2022-11-11T03:55:44;98882.00;;;9.48;87.62
55066;BME280;40964;42.114;24.220;2022-11-11T03:58:10;98876.13;;;9.46;88.77
55066;BME280;40964;42.114;24.220;2022-11-11T04:00:36;98861.72;;;9.42;88.34
55066;BME280;40964;42.114;24.220;2022-11-11T04:03:09;98882.00;;;9.48;87.72
55066;BME280;40964;42.114;24.220;2022-11-11T04:05:53;98874.69;;;9.44;87.88
55066;BME280;40964;42.114;24.220;2022-11-11T04:08:37;98870.25;;;9.44;88.54
55066;BME280;40964;42.114;24.220;2022-11-11T04:11:36;98874.78;;;9.35;88.92
55066;BME280;40964;42.114;24.220;2022-11-11T04:14:08;98885.19;;;9.29;88.42
55066;BME280;40964;42.114;24.220;2022-11-11T04:16:53;98893.13;;;9.21;88.91
55066;BME280;40964;42.114;24.220;2022-11-11T04:19:18;98897.47;;;9.14;89.60
55066;BME280;40964;42.114;24.220;2022-11-11T04:22:02;98902.72;;;9.14;89.96
55066;BME280;40964;42.114;24.220;2022-11-11T04:24:28;98901.53;;;9.16;89.09
55066;BME280;40964;42.114;24.220;2022-11-11T04:27:13;98900.00;;;8.92;90.55
55066;BME280;40964;42.114;24.220;2022-11-11T04:29:39;98910.63;;;8.76;90.29
55066;BME280;40964;42.114;24.220;2022-11-11T04:32:07;98911.25;;;8.78;89.56
55066;BME280;40964;42.114;24.220;2022-11-11T04:34:59;98919.94;;;8.78;90.12
55066;BME280;40964;42.114;24.220;2022-11-11T04:37:27;98913.69;;;8.79;89.64
55066;BME280;40964;42.114;24.220;2022-11-11T04:39:54;98918.84;;;8.73;90.15
55066;BME280;40964;42.114;24.220;2022-11-11T04:42:38;98922.28;;;8.73;90.33
55066;BME280;40964;42.114;24.220;2022-11-11T04:45:04;98924.78;;;8.67;90.14
55066;BME280;40964;42.114;24.220;2022-11-11T04:50:18;98906.38;;;8.52;90.75
55066;BME280;40964;42.114;24.220;2022-11-11T04:52:44;98916.16;;;8.58;91.09
55066;BME280;40964;42.114;24.220;2022-11-11T04:55:09;98911.56;;;8.60;91.13
55066;BME280;40964;42.114;24.220;2022-11-11T04:57:53;98906.50;;;8.59;91.96
55066;BME280;40964;42.114;24.220;2022-11-11T05:00:19;98909.25;;;8.65;91.77
55066;BME280;40964;42.114;24.220;2022-11-11T05:02:44;98914.06;;;8.76;91.60
55066;BME280;40964;42.114;24.220;2022-11-11T05:05:29;98901.56;;;8.78;91.91
55066;BME280;40964;42.114;24.220;2022-11-11T05:08:15;98908.28;;;8.81;91.44
55066;BME280;40964;42.114;24.220;2022-11-11T05:11:20;98903.59;;;8.91;91.27
55066;BME280;40964;42.114;24.220;2022-11-11T05:13:46;98901.63;;;8.93;91.57
55066;BME280;40964;42.114;24.220;2022-11-11T05:16:32;98908.59;;;9.01;91.89
55066;BME280;40964;42.114;24.220;2022-11-11T05:19:17;98906.16;;;8.99;91.51
55066;BME280;40964;42.114;24.220;2022-11-11T05:22:08;98916.66;;;8.99;90.88
55066;BME280;40964;42.114;24.220;2022-11-11T05:24:35;98917.47;;;9.00;92.01
55066;BME280;40964;42.114;24.220;2022-11-11T05:27:19;98916.28;;;9.02;92.82
55066;BME280;40964;42.114;24.220;2022-11-11T05:29:46;98921.66;;;9.09;92.34
55066;BME280;40964;42.114;24.220;2022-11-11T05:32:15;98918.22;;;9.08;92.07
55066;BME280;40964;42.114;24.220;2022-11-11T05:34:42;98921.47;;;9.10;91.61
55066;BME280;40964;42.114;24.220;2022-11-11T05:37:07;98925.00;;;9.18;92.04
55066;BME280;40964;42.114;24.220;2022-11-11T05:39:33;98918.22;;;9.08;91.23
55066;BME280;40964;42.114;24.220;2022-11-11T05:41:59;98938.56;;;9.21;91.46
55066;BME280;40964;42.114;24.220;2022-11-11T05:44:24;98940.50;;;9.27;90.59
55066;BME280;40964;42.114;24.220;2022-11-11T05:46:50;98940.31;;;9.29;90.66
55066;BME280;40964;42.114;24.220;2022-11-11T05:49:15;98940.41;;;9.35;91.02
55066;BME280;40964;42.114;24.220;2022-11-11T05:51:44;98950.28;;;9.48;90.86
55066;BME280;40964;42.114;24.220;2022-11-11T05:54:10;98937.44;;;9.53;90.83
55066;BME280;40964;42.114;24.220;2022-11-11T05:56:36;98945.66;;;9.65;90.59
55066;BME280;40964;42.114;24.220;2022-11-11T05:59:05;98955.88;;;9.75;90.23
55066;BME280;40964;42.114;24.220;2022-11-11T06:01:31;98947.44;;;9.79;89.55
55066;BME280;40964;42.114;24.220;2022-11-11T06:03:56;98960.66;;;9.86;89.34
55066;BME280;40964;42.114;24.220;2022-11-11T06:06:22;98957.94;;;9.94;89.31
55066;BME280;40964;42.114;24.220;2022-11-11T06:08:47;98962.28;;;10.02;89.46
55066;BME280;40964;42.114;24.220;2022-11-11T06:11:13;98966.63;;;10.09;89.66
55066;BME280;40964;42.114;24.220;2022-11-11T06:13:38;98977.31;;;10.22;88.64
55066;BME280;40964;42.114;24.220;2022-11-11T06:16:04;98967.31;;;10.33;87.33
55066;BME280;40964;42.114;24.220;2022-11-11T06:18:30;98980.00;;;10.44;87.52
55066;BME280;40964;42.114;24.220;2022-11-11T06:20:56;98977.50;;;10.57;86.43
55066;BME280;40964;42.114;24.220;2022-11-11T06:23:23;98983.91;;;10.69;85.34
55066;BME280;40964;42.114;24.220;2022-11-11T06:25:49;98992.72;;;10.83;84.87
55066;BME280;40964;42.114;24.220;2022-11-11T06:28:33;98999.34;;;11.00;84.05
55066;BME280;40964;42.114;24.220;2022-11-11T06:30:59;98997.41;;;11.09;83.49
55066;BME280;40964;42.114;24.220;2022-11-11T06:33:24;98994.25;;;11.20;82.64
55066;BME280;40964;42.114;24.220;2022-11-11T06:35:50;99002.44;;;11.32;83.63
55066;BME280;40964;42.114;24.220;2022-11-11T06:38:16;99002.16;;;11.48;83.14
55066;BME280;40964;42.114;24.220;2022-11-11T06:40:42;98996.53;;;11.58;81.94
55066;BME280;40964;42.114;24.220;2022-11-11T06:43:08;99000.63;;;11.60;82.40
55066;BME280;40964;42.114;24.220;2022-11-11T06:45:34;98991.78;;;11.75;82.17
55066;BME280;40964;42.114;24.220;2022-11-11T06:48:03;98986.03;;;11.92;79.17
55066;BME280;40964;42.114;24.220;2022-11-11T06:50:31;98981.88;;;12.18;78.13
55066;BME280;40964;42.114;24.220;2022-11-11T06:53:03;98979.91;;;12.40;78.25
55066;BME280;40964;42.114;24.220;2022-11-11T06:55:29;98984.66;;;12.64;76.69
55066;BME280;40964;42.114;24.220;2022-11-11T06:57:54;98978.78;;;12.82;75.28
55066;BME280;40964;42.114;24.220;2022-11-11T07:00:20;98983.25;;;13.01;74.62
55066;BME280;40964;42.114;24.220;2022-11-11T07:02:45;98976.38;;;13.20;76.23
55066;BME280;40964;42.114;24.220;2022-11-11T07:05:12;98973.16;;;13.25;74.54
55066;BME280;40964;42.114;24.220;2022-11-11T07:07:37;98985.94;;;13.41;73.72
55066;BME280;40964;42.114;24.220;2022-11-11T07:10:03;98985.31;;;13.52;73.55
55066;BME280;40964;42.114;24.220;2022-11-11T07:12:31;98993.63;;;13.56;73.23
55066;BME280;40964;42.114;24.220;2022-11-11T07:14:57;99000.34;;;13.58;73.81
55066;BME280;40964;42.114;24.220;2022-11-11T07:17:22;98997.50;;;13.67;74.12
55066;BME280;40964;42.114;24.220;2022-11-11T07:19:48;99001.72;;;13.81;74.72
55066;BME280;40964;42.114;24.220;2022-11-11T07:22:13;98998.44;;;13.92;74.46
55066;BME280;40964;42.114;24.220;2022-11-11T07:24:39;99008.00;;;13.93;74.05
55066;BME280;40964;42.114;24.220;2022-11-11T07:27:05;99018.78;;;13.91;72.53
55066;BME280;40964;42.114;24.220;2022-11-11T07:29:30;99017.34;;;13.96;70.08
55066;BME280;40964;42.114;24.220;2022-11-11T07:31:56;99010.41;;;14.01;69.13
55066;BME280;40964;42.114;24.220;2022-11-11T07:34:21;99014.72;;;13.89;68.75
55066;BME280;40964;42.114;24.220;2022-11-11T07:36:47;99013.31;;;13.93;69.26
55066;BME280;40964;42.114;24.220;2022-11-11T07:39:12;99013.25;;;14.00;69.95
55066;BME280;40964;42.114;24.220;2022-11-11T07:41:38;99016.69;;;14.07;70.08
55066;BME280;40964;42.114;24.220;2022-11-11T07:44:03;99017.50;;;14.14;69.52
55066;BME280;40964;42.114;24.220;2022-11-11T07:46:29;99015.59;;;14.28;69.04
55066;BME280;40964;42.114;24.220;2022-11-11T07:48:54;99009.84;;;14.44;68.91
55066;BME280;40964;42.114;24.220;2022-11-11T07:51:20;99007.41;;;14.49;68.61
55066;BME280;40964;42.114;24.220;2022-11-11T07:53:45;98970.56;;;14.41;67.82
55066;BME280;40964;42.114;24.220;2022-11-11T07:56:11;99007.06;;;14.70;66.82
55066;BME280;40964;42.114;24.220;2022-11-11T07:58:36;99008.88;;;14.76;68.50
55066;BME280;40964;42.114;24.220;2022-11-11T08:01:02;99000.50;;;14.80;67.51
55066;BME280;40964;42.114;24.220;2022-11-11T08:03:28;98996.56;;;14.89;65.72
55066;BME280;40964;42.114;24.220;2022-11-11T08:05:56;98997.34;;;14.96;64.96
55066;BME280;40964;42.114;24.220;2022-11-11T08:08:22;98999.13;;;15.02;63.93
55066;BME280;40964;42.114;24.220;2022-11-11T08:10:54;98998.09;;;15.03;63.48
55066;BME280;40964;42.114;24.220;2022-11-11T08:13:20;98994.16;;;15.12;63.83
55066;BME280;40964;42.114;24.220;2022-11-11T08:16:04;98989.50;;;15.08;64.32
55066;BME280;40964;42.114;24.220;2022-11-11T08:18:32;98999.03;;;15.15;63.85
55066;BME280;40964;42.114;24.220;2022-11-11T08:20:58;99003.50;;;15.15;63.87
55066;BME280;40964;42.114;24.220;2022-11-11T08:23:24;99001.53;;;15.10;63.90
55066;BME280;40964;42.114;24.220;2022-11-11T08:26:01;98998.47;;;15.07;63.97
55066;BME280;40964;42.114;24.220;2022-11-11T08:28:28;99007.13;;;14.95;63.61
55066;BME280;40964;42.114;24.220;2022-11-11T08:30:57;99012.06;;;14.92;64.41
55066;BME280;40964;42.114;24.220;2022-11-11T08:33:23;99015.91;;;14.89;64.96
55066;BME280;40964;42.114;24.220;2022-11-11T08:35:49;99028.75;;;14.92;64.27
55066;BME280;40964;42.114;24.220;2022-11-11T08:38:14;99026.94;;;14.86;64.90
55066;BME280;40964;42.114;24.220;2022-11-11T08:40:41;99032.84;;;14.88;64.99
55066;BME280;40964;42.114;24.220;2022-11-11T08:43:06;99034.47;;;14.89;65.23
55066;BME280;40964;42.114;24.220;2022-11-11T08:45:32;99044.03;;;14.90;65.22
55066;BME280;40964;42.114;24.220;2022-11-11T08:47:58;99045.47;;;14.93;65.14
55066;BME280;40964;42.114;24.220;2022-11-11T08:50:23;99052.97;;;14.96;65.27
55066;BME280;40964;42.114;24.220;2022-11-11T08:52:50;99043.16;;;15.03;65.02
55066;BME280;40964;42.114;24.220;2022-11-11T08:55:15;99047.16;;;15.12;64.93
55066;BME280;40964;42.114;24.220;2022-11-11T08:57:41;99049.78;;;15.19;64.54
55066;BME280;40964;42.114;24.220;2022-11-11T09:00:07;99055.66;;;15.21;64.59
55066;BME280;40964;42.114;24.220;2022-11-11T09:02:33;99037.47;;;15.24;64.02
55066;BME280;40964;42.114;24.220;2022-11-11T09:04:59;99037.91;;;15.21;64.76
55066;BME280;40964;42.114;24.220;2022-11-11T09:07:25;99056.63;;;15.26;64.54
55066;BME280;40964;42.114;24.220;2022-11-11T09:09:50;99058.47;;;15.26;64.32
55066;BME280;40964;42.114;24.220;2022-11-11T09:12:16;99061.56;;;15.23;64.57
55066;BME280;40964;42.114;24.220;2022-11-11T09:14:42;99066.84;;;15.23;64.27
55066;BME280;40964;42.114;24.220;2022-11-11T09:17:07;99070.75;;;15.20;64.39
55066;BME280;40964;42.114;24.220;2022-11-11T09:19:32;99068.13;;;15.14;64.72
55066;BME280;40964;42.114;24.220;2022-11-11T09:21:58;99071.47;;;15.02;65.10
55066;BME280;40964;42.114;24.220;2022-11-11T09:24:24;99073.38;;;14.89;65.47
55066;BME280;40964;42.114;24.220;2022-11-11T09:26:50;99074.06;;;14.77;66.24
55066;BME280;40964;42.114;24.220;2022-11-11T09:29:16;99071.44;;;14.71;67.04
55066;BME280;40964;42.114;24.220;2022-11-11T09:31:42;99086.72;;;14.69;67.36
55066;BME280;40964;42.114;24.220;2022-11-11T09:34:07;99083.44;;;14.73;67.57
55066;BME280;40964;42.114;24.220;2022-11-11T09:36:33;99078.97;;;14.74;67.72
55066;BME280;40964;42.114;24.220;2022-11-11T09:38:59;99064.09;;;14.73;67.52
55066;BME280;40964;42.114;24.220;2022-11-11T09:47:20;99067.88;;;14.90;67.64
55066;BME280;40964;42.114;24.220;2022-11-11T09:50:02;99077.06;;;14.88;67.91
55066;BME280;40964;42.114;24.220;2022-11-11T09:52:51;99073.69;;;14.74;68.52
55066;BME280;40964;42.114;24.220;2022-11-11T09:55:21;99076.97;;;14.63;69.35
55066;BME280;40964;42.114;24.220;2022-11-11T09:57:53;99075.78;;;14.59;69.38
55066;BME280;40964;42.114;24.220;2022-11-11T10:01:00;99078.66;;;14.51;69.66
55066;BME280;40964;42.114;24.220;2022-11-11T10:03:29;99085.19;;;14.41;69.97
55066;BME280;40964;42.114;24.220;2022-11-11T10:06:02;99078.06;;;14.35;69.60
55066;BME280;40964;42.114;24.220;2022-11-11T10:08:36;99075.25;;;14.30;69.91
55066;BME280;40964;42.114;24.220;2022-11-11T10:11:13;99067.94;;;14.26;70.25
55066;BME280;40964;42.114;24.220;2022-11-11T10:13:40;99077.31;;;14.15;70.82
55066;BME280;40964;42.114;24.220;2022-11-11T10:16:20;99075.50;;;14.15;70.98
55066;BME280;40964;42.114;24.220;2022-11-11T10:21:50;99065.72;;;14.23;70.70
55066;BME280;40964;42.114;24.220;2022-11-11T10:24:29;99072.63;;;14.24;70.81
55066;BME280;40964;42.114;24.220;2022-11-11T10:27:00;99066.31;;;14.18;70.72
55066;BME280;40964;42.114;24.220;2022-11-11T10:29:32;99059.63;;;14.09;71.05
55066;BME280;40964;42.114;24.220;2022-11-11T10:32:09;99053.16;;;13.91;71.08
55066;BME280;40964;42.114;24.220;2022-11-11T10:34:36;99064.16;;;13.95;71.87
55066;BME280;40964;42.114;24.220;2022-11-11T10:37:16;99070.66;;;13.92;72.16
55066;BME280;40964;42.114;24.220;2022-11-11T10:39:47;99067.41;;;13.90;71.98
55066;BME280;40964;42.114;24.220;2022-11-11T10:42:17;99060.09;;;13.86;72.38
55066;BME280;40964;42.114;24.220;2022-11-11T10:44:43;99065.78;;;13.83;72.66
55066;BME280;40964;42.114;24.220;2022-11-11T10:49:58;99062.16;;;13.84;72.31
55066;BME280;40964;42.114;24.220;2022-11-11T10:52:40;99066.41;;;13.85;72.52
55066;BME280;40964;42.114;24.220;2022-11-11T10:55:13;99067.00;;;13.87;72.53
55066;BME280;40964;42.114;24.220;2022-11-11T10:57:50;99056.44;;;13.94;72.43
55066;BME280;40964;42.114;24.220;2022-11-11T11:00:17;99058.44;;;13.91;72.22
55066;BME280;40964;42.114;24.220;2022-11-11T11:05:47;99045.44;;;13.90;72.11
55066;BME280;40964;42.114;24.220;2022-11-11T11:08:19;99047.47;;;13.95;72.17
55066;BME280;40964;42.114;24.220;2022-11-11T11:10:57;99050.88;;;14.08;71.57
55066;BME280;40964;42.114;24.220;2022-11-11T11:13:40;99029.34;;;14.05;71.66
55066;BME280;40964;42.114;24.220;2022-11-11T11:16:21;99038.25;;;14.10;71.60
55066;BME280;40964;42.114;24.220;2022-11-11T11:21:58;99032.50;;;14.27;70.59
55066;BME280;40964;42.114;24.220;2022-11-11T11:26:52;99030.84;;;14.39;69.66
55066;BME280;40964;42.114;24.220;2022-11-11T11:29:42;99033.00;;;14.55;69.09
55066;BME280;40964;42.114;24.220;2022-11-11T11:32:16;99024.13;;;14.81;68.51
55066;BME280;40964;42.114;24.220;2022-11-11T11:34:45;99024.03;;;14.94;67.60
55066;BME280;40964;42.114;24.220;2022-11-11T11:37:12;99019.72;;;15.25;66.83
55066;BME280;40964;42.114;24.220;2022-11-11T11:39:38;99020.50;;;15.32;66.29
55066;BME280;40964;42.114;24.220;2022-11-11T11:42:05;99009.75;;;15.45;65.07
55066;BME280;40964;42.114;24.220;2022-11-11T11:44:33;99022.34;;;15.31;65.41
55066;BME280;40964;42.114;24.220;2022-11-11T11:55:21;99025.59;;;14.77;65.66
55066;BME280;40964;42.114;24.220;2022-11-11T12:00:29;99037.31;;;14.43;66.68
55066;BME280;40964;42.114;24.220;2022-11-11T12:09:17;99038.88;;;14.12;68.74
55066;BME280;40964;42.114;24.220;2022-11-11T12:17:31;99045.66;;;13.88;70.48
55066;BME280;40964;42.114;24.220;2022-11-11T12:23:18;99056.06;;;13.77;71.71
55066;BME280;40964;42.114;24.220;2022-11-11T12:26:12;99053.63;;;13.62;72.42
55066;BME280;40964;42.114;24.220;2022-11-11T12:28:50;99056.88;;;13.71;72.49
55066;BME280;40964;42.114;24.220;2022-11-11T12:31:38;99053.63;;;13.69;72.36
55066;BME280;40964;42.114;24.220;2022-11-11T12:45:30;99058.91;;;13.69;71.69
55066;BME280;40964;42.114;24.220;2022-11-11T12:48:15;99060.53;;;13.63;72.27
55066;BME280;40964;42.114;24.220;2022-11-11T12:53:36;99062.34;;;13.56;71.69
55066;BME280;40964;42.114;24.220;2022-11-11T12:58:59;99061.75;;;13.54;71.54
55066;BME280;40964;42.114;24.220;2022-11-11T13:04:23;99064.00;;;13.50;71.13
55066;BME280;40964;42.114;24.220;2022-11-11T13:07:05;99065.41;;;13.46;71.33
55066;BME280;40964;42.114;24.220;2022-11-11T13:12:30;99061.78;;;13.41;71.99
55066;BME280;40964;42.114;24.220;2022-11-11T13:15:20;99062.16;;;13.44;71.29
55066;BME280;40964;42.114;24.220;2022-11-11T13:17:47;99059.13;;;13.41;71.36
55066;BME280;40964;42.114;24.220;2022-11-11T13:23:11;99067.44;;;13.44;71.34
55066;BME280;40964;42.114;24.220;2022-11-11T13:25:53;99056.06;;;13.44;71.25
55066;BME280;40964;42.114;24.220;2022-11-11T13:28:31;99050.19;;;13.42;70.70
55066;BME280;40964;42.114;24.220;2022-11-11T13:33:48;99055.22;;;13.56;70.23
55066;BME280;40964;42.114;24.220;2022-11-11T13:36:19;99056.88;;;13.51;70.59
55066;BME280;40964;42.114;24.220;2022-11-11T13:38:50;99052.59;;;13.56;70.15
55066;BME280;40964;42.114;24.220;2022-11-11T13:41:23;99055.47;;;13.48;69.98
55066;BME280;40964;42.114;24.220;2022-11-11T13:43:52;99051.59;;;13.51;70.16
55066;BME280;40964;42.114;24.220;2022-11-11T13:46:38;99051.78;;;13.56;69.88
55066;BME280;40964;42.114;24.220;2022-11-11T13:49:19;99049.13;;;13.56;69.80
55066;BME280;40964;42.114;24.220;2022-11-11T13:51:56;99050.97;;;13.62;70.21
55066;BME280;40964;42.114;24.220;2022-11-11T13:54:39;99050.75;;;13.70;70.13
55066;BME280;40964;42.114;24.220;2022-11-11T13:57:14;99049.13;;;13.76;69.62
55066;BME280;40964;42.114;24.220;2022-11-11T13:59:51;99048.50;;;13.80;70.23
55066;BME280;40964;42.114;24.220;2022-11-11T14:13:33;99035.03;;;14.02;68.00
55066;BME280;40964;42.114;24.220;2022-11-11T14:15:43;99035.66;;;14.04;70.05
55066;BME280;40964;42.114;24.220;2022-11-11T14:18:36;99036.47;;;13.98;69.24
55066;BME280;40964;42.114;24.220;2022-11-11T14:21:03;99030.81;;;13.87;69.19
55066;BME280;40964;42.114;24.220;2022-11-11T14:23:39;99029.59;;;13.77;70.36
55066;BME280;40964;42.114;24.220;2022-11-11T14:28:33;99035.13;;;13.49;74.28
55066;BME280;40964;42.114;24.220;2022-11-11T14:33:58;99037.75;;;13.29;76.05
55066;BME280;40964;42.114;24.220;2022-11-11T14:44:58;99043.41;;;12.86;81.85
55066;BME280;40964;42.114;24.220;2022-11-11T14:47:31;99036.06;;;12.82;82.03
55066;BME280;40964;42.114;24.220;2022-11-11T14:49:58;99042.75;;;12.77;81.57
55066;BME280;40964;42.114;24.220;2022-11-11T14:52:41;99031.16;;;12.72;82.57
55066;BME280;40964;42.114;24.220;2022-11-11T14:57:54;99047.63;;;12.67;82.86
55066;BME280;40964;42.114;24.220;2022-11-11T15:00:21;99048.19;;;12.63;82.23
55066;BME280;40964;42.114;24.220;2022-11-11T15:02:53;99048.41;;;12.61;82.54